Time;durP1;ratioP1;P1;durP2;ratioP2;P2;SDS_P1;SDS_P2;PMS_P1;PMS_P2;Temp;Humidity;BMP_temperature;BMP_pressure;BME280_temperature;BME280_humidity;BME280_pressure;Samples;Min_cycle;Max_cycle;Signal;HPM_P1;HPM_P2
2021/05/09 00:00:33;;;;;;;1.30;1.30;;;13.30;99.90;;;;;;5009353;28;20203;-78
2021/05/09 00:03:00;;;;;;;1.40;1.30;;;13.30;99.90;;;;;;5007438;28;20232;-77
2021/05/09 00:05:26;;;;;;;1.58;1.48;;;13.30;99.90;;;;;;5008728;28;20224;-78
2021/05/09 00:07:53;;;;;;;1.50;1.40;;;13.30;99.90;;;;;;5005700;28;20228;-77
2021/05/09 00:10:20;;;;;;;2.50;1.38;;;13.20;99.90;;;;;;5007927;28;20200;-77
2021/05/09 00:12:48;;;;;;;1.60;1.50;;;13.20;99.90;;;;;;5005420;28;20232;-77
2021/05/09 00:15:18;;;;;;;1.35;1.25;;;13.20;99.90;;;;;;5009218;28;20678;-77
2021/05/09 00:17:45;;;;;;;1.40;1.30;;;13.20;99.90;;;;;;5003130;28;20254;-77
2021/05/09 00:20:13;;;;;;;0.98;0.98;;;13.10;99.90;;;;;;5010159;28;20208;-77
2021/05/09 00:22:39;;;;;;;1.58;1.48;;;13.00;99.90;;;;;;5006838;28;20200;-76
2021/05/09 00:25:07;;;;;;;1.58;1.48;;;13.00;99.90;;;;;;5009471;28;20227;-76
2021/05/09 00:27:34;;;;;;;1.58;1.48;;;13.00;99.90;;;;;;5009265;28;20244;-78
2021/05/09 00:30:01;;;;;;;1.30;1.30;;;12.90;99.90;;;;;;5010299;28;20207;-77
2021/05/09 00:32:28;;;;;;;1.38;1.27;;;12.90;99.90;;;;;;5007951;28;20693;-77
2021/05/09 00:34:55;;;;;;;1.25;1.25;;;12.80;99.90;;;;;;5007820;28;20690;-77
2021/05/09 00:37:21;;;;;;;1.30;1.30;;;12.80;99.90;;;;;;5009221;28;20568;-77
2021/05/09 00:39:48;;;;;;;1.25;1.25;;;12.80;99.90;;;;;;5007603;28;20270;-77
2021/05/09 00:42:14;;;;;;;1.17;1.17;;;12.80;99.90;;;;;;5007543;28;20200;-77
2021/05/09 00:44:41;;;;;;;1.30;1.30;;;12.70;99.90;;;;;;5006514;28;20220;-77
2021/05/09 00:47:10;;;;;;;1.40;1.30;;;12.70;99.90;;;;;;5008432;28;20212;-77
2021/05/09 00:49:37;;;;;;;1.42;1.33;;;12.70;99.90;;;;;;5012626;28;20236;-76
2021/05/09 00:52:06;;;;;;;1.63;1.52;;;12.70;99.90;;;;;;5008963;28;20212;-76
2021/05/09 00:54:33;;;;;;;1.52;1.38;;;12.60;99.90;;;;;;5004594;28;20270;-76
2021/05/09 00:57:03;;;;;;;1.58;1.45;;;12.60;99.90;;;;;;5007615;28;20216;-76
2021/05/09 00:59:33;;;;;;;1.90;1.80;;;12.60;99.90;;;;;;5006370;28;20224;-76
2021/05/09 01:02:00;;;;;;;1.45;1.35;;;12.60;99.90;;;;;;5008735;28;20192;-77
2021/05/09 01:04:29;;;;;;;1.58;1.48;;;12.50;99.90;;;;;;5005205;28;20229;-76
2021/05/09 01:06:55;;;;;;;1.90;1.30;;;12.40;99.90;;;;;;5008734;28;20763;-76
2021/05/09 01:09:22;;;;;;;1.23;1.13;;;12.40;99.90;;;;;;5004965;28;20270;-77
2021/05/09 01:11:49;;;;;;;1.40;1.30;;;12.30;99.90;;;;;;5009108;28;20203;-77
2021/05/09 01:14:15;;;;;;;1.80;1.63;;;12.30;99.90;;;;;;5005507;28;20231;-77
2021/05/09 01:16:43;;;;;;;1.60;1.50;;;12.30;99.90;;;;;;5008076;28;20226;-77
2021/05/09 01:19:10;;;;;;;1.67;1.58;;;12.30;99.90;;;;;;5006536;28;20220;-77
2021/05/09 01:21:38;;;;;;;1.45;1.35;;;12.30;99.90;;;;;;5005809;28;20657;-77
2021/05/09 01:24:05;;;;;;;1.73;1.63;;;12.30;99.90;;;;;;5007830;28;20587;-77
2021/05/09 01:26:32;;;;;;;1.55;1.45;;;12.30;99.90;;;;;;5006782;28;20215;-77
2021/05/09 01:28:58;;;;;;;2.05;1.75;;;12.20;99.90;;;;;;5008486;28;20216;-77
2021/05/09 01:31:25;;;;;;;1.90;1.80;;;12.20;99.90;;;;;;5005459;28;20201;-77
2021/05/09 01:33:52;;;;;;;1.50;1.40;;;12.20;99.90;;;;;;5004423;28;20595;-77
2021/05/09 01:36:18;;;;;;;2.72;1.83;;;12.20;99.90;;;;;;5008904;28;20231;-77
2021/05/09 01:38:46;;;;;;;1.40;1.30;;;12.20;99.90;;;;;;5000742;28;20227;-77
2021/05/09 01:41:12;;;;;;;1.60;1.50;;;12.20;99.90;;;;;;5008199;28;20262;-77
2021/05/09 01:43:39;;;;;;;1.70;1.60;;;12.10;99.90;;;;;;5003186;28;20294;-77
2021/05/09 01:46:06;;;;;;;1.80;1.70;;;12.10;99.90;;;;;;5007349;28;20220;-77
2021/05/09 01:48:32;;;;;;;1.63;1.52;;;12.00;99.90;;;;;;5008362;28;20223;-77
2021/05/09 01:50:59;;;;;;;1.75;1.65;;;12.00;99.90;;;;;;5002783;28;20670;-77
2021/05/09 01:53:26;;;;;;;1.83;1.73;;;12.00;99.90;;;;;;5002859;28;20594;-76
2021/05/09 01:55:53;;;;;;;1.65;1.40;;;11.90;99.90;;;;;;5007435;28;20602;-77
2021/05/09 01:58:20;;;;;;;1.60;1.50;;;11.90;99.90;;;;;;5006647;28;20599;-76
2021/05/09 02:00:46;;;;;;;2.03;1.92;;;11.90;99.90;;;;;;5004897;28;20197;-78
2021/05/09 02:03:13;;;;;;;1.63;1.50;;;11.90;99.90;;;;;;5008331;28;20220;-77
2021/05/09 02:05:40;;;;;;;1.55;1.45;;;11.80;99.90;;;;;;5005283;28;20228;-77
2021/05/09 02:08:06;;;;;;;2.60;2.30;;;11.80;99.90;;;;;;5006759;28;20593;-77
2021/05/09 02:10:33;;;;;;;1.77;1.67;;;11.80;99.90;;;;;;5008125;28;20208;-77
2021/05/09 02:13:00;;;;;;;1.73;1.63;;;11.80;99.90;;;;;;5007782;28;20192;-77
2021/05/09 02:15:27;;;;;;;1.50;1.40;;;11.80;99.90;;;;;;5009508;28;20663;-77
2021/05/09 02:17:53;;;;;;;1.80;1.70;;;11.70;99.90;;;;;;5001736;28;20266;-78
2021/05/09 02:20:20;;;;;;;1.70;1.58;;;11.70;99.90;;;;;;5007106;28;20204;-76
2021/05/09 02:22:46;;;;;;;1.75;1.65;;;11.70;99.90;;;;;;5005004;28;20662;-77
2021/05/09 02:25:13;;;;;;;1.50;1.40;;;11.70;99.90;;;;;;5006191;28;20224;-77
2021/05/09 02:27:40;;;;;;;1.80;1.70;;;11.70;99.90;;;;;;5062459;22;20288;-75
2021/05/09 02:30:09;;;;;;;1.67;1.58;;;11.70;99.90;;;;;;5037092;28;20218;-77
2021/05/09 02:32:35;;;;;;;1.80;1.70;;;11.70;99.90;;;;;;5043134;28;20684;-76
2021/05/09 02:35:02;;;;;;;1.70;1.60;;;11.70;99.90;;;;;;5045477;28;20215;-74
2021/05/09 02:37:29;;;;;;;1.85;1.75;;;11.60;99.90;;;;;;5037735;28;20584;-74
2021/05/09 02:39:56;;;;;;;1.80;1.70;;;11.60;99.90;;;;;;5034075;28;20227;-74
2021/05/09 02:42:22;;;;;;;1.80;1.70;;;11.50;99.90;;;;;;5032760;28;20575;-76
2021/05/09 02:44:49;;;;;;;1.55;1.45;;;11.50;99.90;;;;;;5029566;28;20691;-76
2021/05/09 02:47:28;;;;;;;1.70;1.60;;;11.50;99.90;;;;;;5031493;28;20218;-77
2021/05/09 02:49:56;;;;;;;2.10;1.80;;;11.50;99.90;;;;;;5035501;28;20234;-75
2021/05/09 02:52:23;;;;;;;1.95;1.85;;;11.50;99.90;;;;;;5037146;28;20203;-72
2021/05/09 02:54:50;;;;;;;1.80;1.70;;;11.50;99.90;;;;;;5038817;28;20318;-76
2021/05/09 02:57:17;;;;;;;3.83;1.65;;;11.50;99.90;;;;;;5034610;28;20707;-77
2021/05/09 02:59:43;;;;;;;1.60;1.50;;;11.50;99.90;;;;;;5036701;28;20215;-77
2021/05/09 03:02:10;;;;;;;1.67;1.58;;;11.40;99.90;;;;;;5036363;28;20211;-74
2021/05/09 03:04:38;;;;;;;1.35;1.30;;;11.40;99.90;;;;;;5038530;28;20226;-76
2021/05/09 03:07:05;;;;;;;1.55;1.45;;;11.40;99.90;;;;;;5039739;28;20215;-77
2021/05/09 03:09:31;;;;;;;1.60;1.50;;;11.30;99.90;;;;;;5038693;28;20215;-75
2021/05/09 03:11:58;;;;;;;1.80;1.70;;;11.30;99.90;;;;;;5039711;28;20200;-77
2021/05/09 03:14:25;;;;;;;1.65;1.55;;;11.30;99.90;;;;;;5036772;28;20211;-76
2021/05/09 03:16:52;;;;;;;1.70;1.60;;;11.20;99.90;;;;;;5042890;28;20251;-74
2021/05/09 03:19:18;;;;;;;1.83;1.73;;;11.20;99.90;;;;;;5039696;28;20224;-76
2021/05/09 03:21:46;;;;;;;1.95;1.80;;;11.20;99.90;;;;;;5038821;28;20192;-76
2021/05/09 03:24:13;;;;;;;1.70;1.60;;;11.20;99.90;;;;;;5040923;28;20224;-75
2021/05/09 03:26:40;;;;;;;1.85;1.75;;;11.20;99.90;;;;;;5041230;28;20514;-75
2021/05/09 03:29:07;;;;;;;1.70;1.60;;;11.20;99.90;;;;;;5034672;28;20249;-75
2021/05/09 03:31:34;;;;;;;1.77;1.38;;;11.20;99.90;;;;;;5037931;28;20210;-75
2021/05/09 03:34:01;;;;;;;2.00;1.90;;;11.20;99.90;;;;;;5039549;28;20224;-74
2021/05/09 03:36:28;;;;;;;1.85;1.75;;;11.20;99.90;;;;;;5037366;28;20215;-77
2021/05/09 03:38:55;;;;;;;1.65;1.55;;;11.20;99.90;;;;;;5032514;28;20219;-73
2021/05/09 03:41:22;;;;;;;1.63;1.52;;;11.10;99.90;;;;;;5035720;28;20200;-76
2021/05/09 03:43:49;;;;;;;1.70;1.60;;;11.10;99.90;;;;;;5038057;28;20215;-74
2021/05/09 03:46:16;;;;;;;1.48;1.40;;;11.10;99.90;;;;;;5038222;28;20281;-76
2021/05/09 03:48:43;;;;;;;1.50;1.50;;;11.00;99.90;;;;;;5041994;28;20227;-74
2021/05/09 03:51:09;;;;;;;1.73;1.63;;;11.00;99.90;;;;;;5037277;28;20223;-74
2021/05/09 03:53:36;;;;;;;1.88;1.67;;;11.00;99.90;;;;;;5038931;28;20229;-76
2021/05/09 03:56:04;;;;;;;1.70;1.60;;;11.00;99.90;;;;;;5044612;28;20257;-75
2021/05/09 03:58:31;;;;;;;1.50;1.40;;;11.00;99.90;;;;;;5040171;28;20222;-75
2021/05/09 04:00:57;;;;;;;1.80;1.70;;;10.90;99.90;;;;;;5036695;28;20219;-74
2021/05/09 04:03:26;;;;;;;1.58;1.48;;;11.00;99.90;;;;;;5039128;28;20203;-74
2021/05/09 04:05:53;;;;;;;1.50;1.50;;;11.00;99.90;;;;;;5038936;28;20265;-76
2021/05/09 04:08:21;;;;;;;1.63;1.55;;;11.00;99.90;;;;;;5036455;28;20638;-77
2021/05/09 04:10:48;;;;;;;1.35;1.35;;;11.00;99.90;;;;;;5036382;28;20196;-77
2021/05/09 04:13:15;;;;;;;1.73;1.63;;;11.00;99.90;;;;;;5036045;28;20207;-77
2021/05/09 04:15:42;;;;;;;1.70;1.60;;;11.00;99.90;;;;;;5042665;28;20195;-74
2021/05/09 04:18:09;;;;;;;1.50;1.50;;;11.00;99.90;;;;;;5042002;28;20269;-76
2021/05/09 04:20:36;;;;;;;1.75;1.65;;;11.00;99.90;;;;;;5037762;28;20220;-75
2021/05/09 04:23:13;;;;;;;1.90;1.70;;;11.00;99.90;;;;;;5037681;28;20199;-75
2021/05/09 04:25:41;;;;;;;1.77;1.67;;;11.00;99.90;;;;;;5036551;28;20736;-74
2021/05/09 04:28:08;;;;;;;1.70;1.63;;;11.10;99.90;;;;;;5038354;28;20227;-76
2021/05/09 04:30:36;;;;;;;1.80;1.70;;;11.20;99.90;;;;;;5034977;28;20701;-76
2021/05/09 04:33:05;;;;;;;1.83;1.73;;;11.30;99.90;;;;;;5036385;28;20246;-75
2021/05/09 04:35:32;;;;;;;1.60;1.50;;;11.40;99.90;;;;;;5038336;28;20279;-75
2021/05/09 04:37:59;;;;;;;1.92;1.83;;;11.50;99.90;;;;;;5038183;28;20228;-75
2021/05/09 04:40:27;;;;;;;1.70;1.60;;;11.60;99.90;;;;;;5038651;28;20215;-77
2021/05/09 04:42:54;;;;;;;1.35;1.35;;;11.70;99.90;;;;;;5037419;28;20226;-75
2021/05/09 04:45:21;;;;;;;1.52;1.42;;;11.80;99.90;;;;;;5039586;28;20223;-75
2021/05/09 04:47:48;;;;;;;1.63;1.52;;;12.00;99.90;;;;;;5038212;28;20285;-76
2021/05/09 04:50:15;;;;;;;1.60;1.50;;;12.00;99.90;;;;;;5035660;28;20220;-74
2021/05/09 04:52:41;;;;;;;1.55;1.50;;;12.10;99.90;;;;;;5035797;28;20266;-74
2021/05/09 04:55:09;;;;;;;1.90;1.80;;;12.30;99.90;;;;;;5034116;28;20218;-77
2021/05/09 04:57:35;;;;;;;2.35;1.83;;;12.40;99.90;;;;;;5034223;28;20408;-76
2021/05/09 05:00:04;;;;;;;1.80;1.70;;;12.50;99.90;;;;;;5033266;28;20224;-75
2021/05/09 05:02:30;;;;;;;2.10;2.00;;;12.60;99.90;;;;;;5032221;28;20559;-76
2021/05/09 05:04:58;;;;;;;2.30;2.20;;;12.60;99.90;;;;;;5032314;28;20495;-75
2021/05/09 05:07:24;;;;;;;2.13;2.03;;;12.70;99.90;;;;;;5032898;28;20219;-76
2021/05/09 05:09:51;;;;;;;2.40;2.17;;;12.80;99.90;;;;;;5031825;28;20231;-76
2021/05/09 05:12:18;;;;;;;2.10;2.00;;;12.90;99.90;;;;;;5032156;28;20311;-74
2021/05/09 05:14:44;;;;;;;2.63;2.10;;;13.10;99.90;;;;;;5032786;28;20625;-76
2021/05/09 05:17:11;;;;;;;1.80;1.70;;;13.20;99.90;;;;;;5033498;28;20224;-80
2021/05/09 05:19:37;;;;;;;1.80;1.70;;;13.30;99.90;;;;;;5033605;28;20211;-78
2021/05/09 05:22:05;;;;;;;1.90;1.80;;;13.40;99.90;;;;;;5033621;28;20199;-78
2021/05/09 05:24:31;;;;;;;2.45;2.25;;;13.50;99.90;;;;;;5036401;28;20223;-76
2021/05/09 05:26:58;;;;;;;2.35;2.15;;;13.60;99.90;;;;;;5034450;28;20233;-75
2021/05/09 05:29:25;;;;;;;2.08;1.85;;;13.70;99.90;;;;;;5035387;28;20225;-76
2021/05/09 05:31:51;;;;;;;1.95;1.85;;;13.80;99.90;;;;;;5037256;28;20192;-77
2021/05/09 05:34:18;;;;;;;2.55;1.98;;;13.80;99.90;;;;;;5034242;28;20597;-76
2021/05/09 05:36:45;;;;;;;2.60;2.00;;;13.90;99.90;;;;;;5029615;28;20208;-78
2021/05/09 05:39:13;;;;;;;2.00;1.90;;;14.00;99.90;;;;;;5032787;28;21689;-75
2021/05/09 05:41:40;;;;;;;2.20;2.00;;;14.10;99.90;;;;;;5035261;28;20847;-74
2021/05/09 05:44:07;;;;;;;1.65;1.55;;;14.10;99.90;;;;;;5033080;28;20229;-76
2021/05/09 05:46:34;;;;;;;2.75;1.70;;;14.20;99.90;;;;;;5031702;28;20691;-75
2021/05/09 05:49:01;;;;;;;2.15;2.05;;;14.20;99.90;;;;;;5031365;28;20220;-75
2021/05/09 05:51:28;;;;;;;2.10;2.00;;;14.30;99.90;;;;;;5030200;28;20260;-75
2021/05/09 05:53:58;;;;;;;1.80;1.70;;;14.40;99.90;;;;;;5034219;28;20272;-75
2021/05/09 05:56:26;;;;;;;1.90;1.80;;;14.50;99.90;;;;;;5029954;28;20216;-75
2021/05/09 05:58:52;;;;;;;1.60;1.50;;;14.60;99.90;;;;;;5029726;28;20306;-75
2021/05/09 06:01:19;;;;;;;3.03;1.75;;;14.70;99.90;;;;;;5031639;28;20203;-74
2021/05/09 06:03:46;;;;;;;2.38;2.00;;;14.70;99.90;;;;;;5028493;28;20199;-74
2021/05/09 06:06:13;;;;;;;2.03;1.65;;;14.70;99.90;;;;;;5028945;28;20621;-74
2021/05/09 06:08:41;;;;;;;1.77;1.67;;;14.70;99.90;;;;;;5028796;28;20203;-75
2021/05/09 06:11:07;;;;;;;1.95;1.85;;;14.70;99.90;;;;;;5032682;28;20227;-75
2021/05/09 06:13:35;;;;;;;1.60;1.50;;;14.80;99.90;;;;;;5033332;28;20214;-74
2021/05/09 06:16:02;;;;;;;2.00;1.75;;;15.00;99.90;;;;;;5032307;28;20192;-75
2021/05/09 06:18:29;;;;;;;1.80;1.60;;;15.10;99.90;;;;;;5033315;28;20199;-75
2021/05/09 06:20:55;;;;;;;1.77;1.65;;;15.10;99.90;;;;;;5037715;28;20219;-74
2021/05/09 06:23:24;;;;;;;1.77;1.67;;;15.10;99.90;;;;;;5035510;28;20200;-75
2021/05/09 06:25:51;;;;;;;1.50;1.40;;;15.10;99.90;;;;;;5028949;28;20318;-73
2021/05/09 06:28:18;;;;;;;2.30;2.10;;;15.10;99.90;;;;;;5032111;28;20211;-74
2021/05/09 06:30:47;;;;;;;2.22;1.70;;;15.20;99.90;;;;;;5030241;28;20219;-76
2021/05/09 06:33:13;;;;;;;2.20;1.83;;;15.20;99.90;;;;;;5034355;28;20783;-75
2021/05/09 06:35:40;;;;;;;1.90;1.70;;;15.40;99.90;;;;;;5029077;28;20569;-74
2021/05/09 06:38:07;;;;;;;2.15;1.95;;;15.50;99.90;;;;;;5029871;28;20322;-77
2021/05/09 06:40:36;;;;;;;1.83;1.70;;;15.50;99.90;;;;;;5025492;28;20998;-77
2021/05/09 06:43:04;;;;;;;4.82;1.85;;;15.60;99.90;;;;;;5024542;28;20223;-74
2021/05/09 06:45:32;;;;;;;1.80;1.70;;;15.70;99.90;;;;;;5022526;28;20219;-74
2021/05/09 06:48:02;;;;;;;3.17;1.60;;;15.70;99.90;;;;;;5026397;28;20212;-75
2021/05/09 06:50:30;;;;;;;1.63;1.52;;;15.90;99.90;;;;;;5031367;28;20219;-74
2021/05/09 06:52:57;;;;;;;1.85;1.75;;;15.90;99.90;;;;;;5029697;28;20200;-75
2021/05/09 06:55:24;;;;;;;2.08;1.30;;;15.90;99.90;;;;;;5029034;28;20231;-74
2021/05/09 06:57:51;;;;;;;2.10;1.90;;;16.10;99.90;;;;;;5029247;28;20219;-75
2021/05/09 07:00:20;;;;;;;2.25;2.00;;;16.20;99.90;;;;;;5030545;28;20292;-76
2021/05/09 07:02:47;;;;;;;1.75;1.65;;;16.10;99.90;;;;;;5031609;28;20542;-79
2021/05/09 07:05:15;;;;;;;2.15;1.90;;;16.20;99.90;;;;;;5028111;28;20230;-76
2021/05/09 07:07:49;;;;;;;2.20;1.80;;;16.30;99.90;;;;;;5029933;28;20697;-76
2021/05/09 07:10:16;;;;;;;1.58;1.48;;;16.50;99.90;;;;;;5033917;28;20231;-75
2021/05/09 07:12:43;;;;;;;1.60;1.50;;;16.60;99.90;;;;;;5029599;28;20210;-75
2021/05/09 07:15:11;;;;;;;1.70;1.60;;;16.70;99.90;;;;;;5032863;28;20350;-76
2021/05/09 07:17:38;;;;;;;1.80;1.70;;;16.80;99.90;;;;;;5027072;28;20230;-75
2021/05/09 07:20:06;;;;;;;1.75;1.65;;;16.90;99.90;;;;;;5028235;28;20219;-75
2021/05/09 07:22:39;;;;;;;2.08;1.40;;;17.10;99.90;;;;;;5031591;28;20203;-75
2021/05/09 07:25:06;;;;;;;1.70;1.60;;;17.10;99.90;;;;;;5030729;28;20224;-75
2021/05/09 07:27:32;;;;;;;1.85;1.70;;;17.20;99.90;;;;;;5028948;28;20716;-75
2021/05/09 07:29:59;;;;;;;1.67;1.58;;;17.10;99.90;;;;;;5031982;28;20222;-76
2021/05/09 07:32:26;;;;;;;1.45;1.35;;;17.20;99.90;;;;;;5029148;28;20652;-76
2021/05/09 07:34:53;;;;;;;1.67;1.58;;;17.10;99.90;;;;;;5029340;28;20701;-75
2021/05/09 07:37:19;;;;;;;1.60;1.50;;;17.10;99.90;;;;;;5024687;28;20215;-73
2021/05/09 07:39:47;;;;;;;1.50;1.40;;;17.10;99.90;;;;;;5015155;28;20251;-77
2021/05/09 07:42:13;;;;;;;1.90;1.50;;;17.20;99.90;;;;;;5020382;28;20203;-75
2021/05/09 07:44:40;;;;;;;1.42;1.33;;;17.40;99.90;;;;;;5022567;28;20303;-73
2021/05/09 07:47:07;;;;;;;1.80;1.70;;;17.60;99.90;;;;;;5020518;28;20231;-74
2021/05/09 07:49:33;;;;;;;2.05;1.90;;;17.60;99.90;;;;;;5020144;28;20222;-75
2021/05/09 07:52:00;;;;;;;1.60;1.50;;;17.70;99.90;;;;;;5024430;28;20230;-74
2021/05/09 07:54:26;;;;;;;1.85;1.45;;;17.90;99.90;;;;;;5023150;28;20232;-74
2021/05/09 07:56:54;;;;;;;4.13;1.60;;;17.80;99.90;;;;;;5026935;28;20212;-75
2021/05/09 07:59:21;;;;;;;1.38;1.30;;;17.80;99.90;;;;;;5020399;28;20702;-74
2021/05/09 08:01:47;;;;;;;1.92;1.50;;;17.80;99.90;;;;;;5024139;28;20210;-75
2021/05/09 08:04:14;;;;;;;1.40;1.30;;;17.80;99.90;;;;;;5025166;28;20598;-75
2021/05/09 08:06:43;;;;;;;2.05;1.42;;;17.90;99.90;;;;;;5026728;28;20220;-74
2021/05/09 08:09:09;;;;;;;1.55;1.45;;;18.00;99.90;;;;;;5023488;28;20195;-74
2021/05/09 08:11:36;;;;;;;1.52;1.35;;;18.00;99.90;;;;;;5025595;28;20982;-75
2021/05/09 08:14:04;;;;;;;1.52;1.40;;;18.30;99.90;;;;;;5025318;28;20670;-75
2021/05/09 08:16:31;;;;;;;1.55;1.45;;;18.40;99.90;;;;;;5031130;28;20219;-74
2021/05/09 08:18:57;;;;;;;1.52;1.42;;;18.60;99.90;;;;;;5031219;28;20200;-73
2021/05/09 08:21:24;;;;;;;1.45;1.35;;;18.70;99.90;;;;;;5028935;28;20665;-74
2021/05/09 08:23:51;;;;;;;2.42;1.70;;;18.90;99.90;;;;;;5029323;28;20719;-74
2021/05/09 08:28:44;;;;;;;1.80;1.20;;;19.10;99.90;;;;;;5051750;22;20223;-74
2021/05/09 08:31:15;;;;;;;3.20;1.58;;;19.10;99.90;;;;;;5023905;28;20224;-77
2021/05/09 08:33:42;;;;;;;1.50;1.40;;;19.10;99.90;;;;;;5035329;28;20288;-76
2021/05/09 08:36:09;;;;;;;1.50;1.40;;;19.10;99.90;;;;;;5031128;28;20454;-76
2021/05/09 08:38:35;;;;;;;1.70;1.60;;;19.30;99.90;;;;;;5029613;28;20689;-74
2021/05/09 08:41:02;;;;;;;1.63;1.42;;;19.30;99.90;;;;;;5031130;28;20223;-75
2021/05/09 08:43:29;;;;;;;1.50;1.40;;;19.40;99.90;;;;;;5034188;28;20658;-75
2021/05/09 08:45:57;;;;;;;1.42;1.35;;;19.50;99.90;;;;;;5029721;28;20602;-76
2021/05/09 08:48:26;;;;;;;2.63;1.70;;;19.60;99.90;;;;;;5031386;28;20216;-76
2021/05/09 08:50:53;;;;;;;2.25;1.45;;;19.80;99.90;;;;;;5032891;28;20725;-77
2021/05/09 08:53:20;;;;;;;5.43;1.52;;;19.70;99.90;;;;;;5028978;28;20210;-75
2021/05/09 08:55:48;;;;;;;1.67;1.40;;;19.60;99.90;;;;;;5032137;28;20277;-76
2021/05/09 08:58:15;;;;;;;1.38;1.27;;;19.60;99.90;;;;;;5035359;28;20273;-76
2021/05/09 09:00:41;;;;;;;1.60;1.50;;;19.70;99.90;;;;;;5033381;28;20224;-77
2021/05/09 09:03:08;;;;;;;1.40;1.30;;;19.80;99.90;;;;;;5034408;28;20203;-76
2021/05/09 09:05:38;;;;;;;1.95;1.30;;;19.90;99.90;;;;;;5025963;28;20226;-76
2021/05/09 09:08:06;;;;;;;1.50;1.40;;;20.00;99.90;;;;;;5025540;28;20215;-77
2021/05/09 09:10:36;;;;;;;1.30;1.20;;;20.00;99.90;;;;;;5027966;28;20583;-76
2021/05/09 09:13:04;;;;;;;2.35;1.30;;;20.30;99.90;;;;;;5029514;28;20207;-77
2021/05/09 09:15:50;;;;;;;1.60;1.38;;;20.60;99.90;;;;;;5033794;28;20215;-77
2021/05/09 09:18:34;;;;;;;1.50;1.40;;;20.60;99.90;;;;;;5028533;28;20229;-75
2021/05/09 09:21:25;;;;;;;2.72;1.50;;;20.40;99.90;;;;;;5029083;28;20727;-76
2021/05/09 09:23:54;;;;;;;1.58;1.20;;;20.20;99.90;;;;;;5029590;28;20696;-77
2021/05/09 09:26:28;;;;;;;1.40;1.30;;;20.30;99.90;;;;;;5031113;28;20254;-76
2021/05/09 09:28:55;;;;;;;1.40;1.30;;;20.30;99.90;;;;;;5039596;28;20195;-76
2021/05/09 09:31:39;;;;;;;1.52;1.40;;;20.30;99.90;;;;;;5031984;28;20216;-76
2021/05/09 09:34:06;;;;;;;1.70;1.50;;;20.50;99.90;;;;;;5034180;28;20206;-76
2021/05/09 09:36:34;;;;;;;1.98;1.63;;;20.70;99.90;;;;;;5030443;28;20223;-76
2021/05/09 09:39:00;;;;;;;1.88;1.40;;;20.80;99.90;;;;;;5027372;28;20196;-76
2021/05/09 09:41:27;;;;;;;1.52;1.42;;;20.90;99.90;;;;;;5027020;28;20219;-76
2021/05/09 09:44:06;;;;;;;1.42;1.33;;;21.00;99.90;;;;;;5028232;28;20616;-76
2021/05/09 09:46:35;;;;;;;1.60;1.23;;;21.00;99.90;;;;;;5022217;28;20219;-77
2021/05/09 09:49:04;;;;;;;1.88;1.45;;;21.10;99.90;;;;;;5028023;28;20206;-76
2021/05/09 09:51:47;;;;;;;1.70;1.60;;;21.00;99.90;;;;;;5028945;28;20617;-77
2021/05/09 09:54:39;;;;;;;1.40;1.30;;;21.30;99.90;;;;;;5025371;28;20200;-77
2021/05/09 09:57:07;;;;;;;1.40;1.30;;;21.60;99.90;;;;;;5033612;28;20225;-76
2021/05/09 09:59:34;;;;;;;1.50;1.40;;;21.60;99.90;;;;;;5027150;28;20195;-77
2021/05/09 10:02:03;;;;;;;2.67;1.58;;;21.40;99.90;;;;;;5026065;28;20211;-77
2021/05/09 10:04:30;;;;;;;2.08;1.40;;;21.50;99.90;;;;;;5031614;28;20204;-76
2021/05/09 10:06:58;;;;;;;1.30;1.20;;;21.60;99.90;;;;;;5028062;28;20215;-76
2021/05/09 10:09:25;;;;;;;1.60;1.38;;;21.60;99.90;;;;;;5030944;28;20705;-77
2021/05/09 10:11:55;;;;;;;1.70;1.30;;;21.60;99.90;;;;;;5033584;28;20243;-77
2021/05/09 10:14:21;;;;;;;1.73;1.20;;;21.80;99.90;;;;;;5031428;28;20250;-77
2021/05/09 10:16:50;;;;;;;1.50;1.40;;;21.90;99.90;;;;;;5028530;28;20223;-76
2021/05/09 10:19:22;;;;;;;2.97;1.35;;;21.80;99.90;;;;;;5028744;28;20196;-77
2021/05/09 10:21:49;;;;;;;1.95;1.20;;;21.80;99.90;;;;;;5029492;28;20222;-77
2021/05/09 10:24:17;;;;;;;1.38;1.27;;;22.10;99.90;;;;;;5035683;28;20206;-77
2021/05/09 10:26:46;;;;;;;1.73;1.38;;;22.20;99.90;;;;;;5026794;28;20224;-77
2021/05/09 10:29:58;;;;;;;1.40;1.30;;;22.20;99.90;;;;;;5027591;28;20223;-75
2021/05/09 10:32:51;;;;;;;1.15;1.08;;;22.50;99.90;;;;;;5029530;28;20222;-77
2021/05/09 10:35:54;;;;;;;1.42;1.08;;;22.80;99.90;;;;;;5024082;28;20283;-75
2021/05/09 10:38:20;;;;;;;1.40;1.30;;;22.70;99.90;;;;;;5028064;28;20242;-77
2021/05/09 10:40:48;;;;;;;1.10;0.93;;;23.00;99.90;;;;;;5031119;28;20192;-76
2021/05/09 10:43:31;;;;;;;1.33;1.20;;;22.80;99.90;;;;;;5023607;28;20228;-76
2021/05/09 10:45:58;;;;;;;1.58;1.13;;;22.80;99.90;;;;;;5028936;28;20224;-76
2021/05/09 10:48:35;;;;;;;1.05;1.00;;;22.60;99.90;;;;;;5030673;28;20632;-75
2021/05/09 10:51:29;;;;;;;1.38;1.10;;;22.70;99.90;;;;;;5036279;28;20196;-76
2021/05/09 10:53:56;;;;;;;1.15;1.05;;;22.60;99.90;;;;;;5025928;28;20219;-77
2021/05/09 10:56:34;;;;;;;1.08;1.00;;;22.60;99.90;;;;;;5034677;28;20238;-76
2021/05/09 10:59:01;;;;;;;1.45;1.10;;;22.80;99.90;;;;;;5033696;28;20772;-73
2021/05/09 11:01:31;;;;;;;1.20;1.10;;;23.00;99.90;;;;;;5033993;28;20204;-74
2021/05/09 11:03:59;;;;;;;1.20;0.88;;;23.50;99.90;;;;;;5045832;28;20234;-75
2021/05/09 11:06:40;;;;;;;0.80;0.80;;;24.10;99.90;;;;;;5041986;28;20220;-75
2021/05/09 11:09:08;;;;;;;1.45;1.10;;;24.30;99.90;;;;;;5043113;28;20689;-74
2021/05/09 11:12:01;;;;;;;0.80;0.80;;;24.50;99.90;;;;;;5047249;28;20211;-74
2021/05/09 11:14:33;;;;;;;2.30;1.45;;;24.40;99.90;;;;;;5043546;28;20208;-74
2021/05/09 11:17:13;;;;;;;1.58;1.02;;;24.50;99.90;;;;;;5046933;28;20234;-75
2021/05/09 11:19:49;;;;;;;1.33;1.00;;;24.60;99.90;;;;;;5046138;28;20257;-75
2021/05/09 11:22:26;;;;;;;1.73;0.90;;;24.50;98.90;;;;;;5038360;28;20184;-75
2021/05/09 11:25:01;;;;;;;3.80;1.10;;;24.40;98.20;;;;;;5044139;28;20202;-74
2021/05/09 11:27:30;;;;;;;1.40;1.05;;;24.20;97.60;;;;;;5039624;28;20250;-74
2021/05/09 11:29:57;;;;;;;4.13;1.02;;;24.00;97.60;;;;;;5046478;28;20188;-74
2021/05/09 11:32:24;;;;;;;1.58;1.00;;;23.80;97.60;;;;;;5045145;28;20200;-75
2021/05/09 11:34:56;;;;;;;2.42;1.02;;;23.70;98.30;;;;;;5047643;28;20202;-76
2021/05/09 11:37:32;;;;;;;2.00;0.98;;;23.80;98.30;;;;;;5051655;28;20219;-76
2021/05/09 11:40:04;;;;;;;1.88;1.10;;;24.10;97.90;;;;;;5042220;28;20195;-77
2021/05/09 11:42:31;;;;;;;1.92;1.20;;;24.20;97.40;;;;;;5038144;28;20633;-75
2021/05/09 11:44:58;;;;;;;2.63;1.10;;;24.30;97.10;;;;;;5043211;28;20204;-74
2021/05/09 11:47:27;;;;;;;1.33;1.20;;;24.40;96.90;;;;;;5044896;28;20291;-75
2021/05/09 11:49:56;;;;;;;1.25;1.13;;;24.40;96.10;;;;;;5043838;28;20200;-74
2021/05/09 11:52:25;;;;;;;1.42;1.23;;;24.30;96.90;;;;;;5047764;28;20230;-75
2021/05/09 11:54:53;;;;;;;0.98;0.93;;;24.40;97.30;;;;;;5038677;28;20208;-74
2021/05/09 11:57:22;;;;;;;1.58;1.10;;;24.30;97.50;;;;;;5036236;28;20235;-77
2021/05/09 11:59:50;;;;;;;3.70;1.60;;;24.30;97.30;;;;;;5040428;28;20219;-74
2021/05/09 12:02:28;;;;;;;1.75;1.20;;;24.00;96.90;;;;;;5040616;28;20215;-74
2021/05/09 12:05:06;;;;;;;1.08;1.00;;;24.30;97.90;;;;;;5042824;28;20208;-75
2021/05/09 12:07:35;;;;;;;1.27;1.17;;;24.40;97.10;;;;;;5036908;28;20219;-74
2021/05/09 12:10:07;;;;;;;1.88;1.20;;;24.50;96.80;;;;;;5049474;28;20199;-77
2021/05/09 12:12:36;;;;;;;1.73;1.30;;;24.40;96.50;;;;;;5040409;28;20218;-76
2021/05/09 12:15:10;;;;;;;1.38;1.27;;;24.40;96.40;;;;;;5038373;28;20888;-76
2021/05/09 12:17:48;;;;;;;1.83;1.45;;;24.50;96.30;;;;;;5041258;28;20219;-77
2021/05/09 12:20:33;;;;;;;1.70;1.60;;;24.60;95.90;;;;;;5034476;28;20230;-74
2021/05/09 12:23:01;;;;;;;1.70;1.25;;;24.60;95.40;;;;;;5043826;28;20712;-75
2021/05/09 12:25:40;;;;;;;3.20;1.30;;;24.50;95.60;;;;;;5045191;28;20195;-74
2021/05/09 12:28:11;;;;;;;2.08;1.58;;;24.60;96.20;;;;;;5038610;28;20227;-74
2021/05/09 12:30:39;;;;;;;4.32;1.50;;;24.30;95.60;;;;;;5043809;28;20200;-73
2021/05/09 12:33:06;;;;;;;3.15;1.67;;;24.40;96.40;;;;;;5040465;28;20223;-74
2021/05/09 12:35:43;;;;;;;4.22;2.03;;;24.40;96.20;;;;;;5040491;28;20254;-74
2021/05/09 12:38:09;;;;;;;1.55;1.45;;;24.50;96.30;;;;;;5043148;28;20723;-74
2021/05/09 12:40:38;;;;;;;1.40;1.30;;;24.60;96.30;;;;;;5041827;28;21314;-75
2021/05/09 12:43:06;;;;;;;2.65;1.85;;;24.60;95.80;;;;;;5045576;28;20227;-75
2021/05/09 12:45:42;;;;;;;3.70;1.30;;;24.40;96.50;;;;;;5040401;28;20237;-75
2021/05/09 12:48:20;;;;;;;3.10;1.73;;;24.30;96.90;;;;;;5039390;28;21619;-74
2021/05/09 12:50:52;;;;;;;5.10;1.60;;;24.50;97.10;;;;;;5046592;28;20195;-74
2021/05/09 12:53:40;;;;;;;1.50;1.40;;;24.60;96.80;;;;;;5036635;28;20220;-74
2021/05/09 12:56:26;;;;;;;2.22;1.60;;;24.50;96.30;;;;;;5033107;28;20688;-74
2021/05/09 12:59:15;;;;;;;4.35;1.60;;;24.50;96.40;;;;;;5031395;28;20225;-75